Time;durP1;ratioP1;P1;durP2;ratioP2;P2;SDS_P1;SDS_P2;PMS_P1;PMS_P2;Temp;Humidity;BMP_temperature;BMP_pressure;BME280_temperature;BME280_humidity;BME280_pressure;Samples;Min_cycle;Max_cycle;Signal;HPM_P1;HPM_P2
2022/12/06 00:01:05;;;;;;;;;;;5.90;99.90;;;;;;5091770;28;19912;-39
2022/12/06 00:03:30;;;;;;;;;;;5.90;99.90;;;;;;5090989;28;19912;-40
2022/12/06 00:06:16;;;;;;;;;;;5.90;99.90;;;;;;5092258;28;20282;-39
2022/12/06 00:08:42;;;;;;;;;;;5.90;99.90;;;;;;5078210;28;19962;-41
2022/12/06 00:11:15;;;;;;;;;;;5.90;99.90;;;;;;5087221;27;19956;-41
2022/12/06 00:13:41;;;;;;;;;;;5.90;99.90;;;;;;5092166;28;19943;-39
2022/12/06 00:16:08;;;;;;;;;;;5.90;99.90;;;;;;5086210;28;19970;-40
2022/12/06 00:18:35;;;;;;;;;;;5.90;99.90;;;;;;5072532;28;19909;-40
2022/12/06 00:21:10;;;;;;;;;;;5.90;99.90;;;;;;5074704;28;19912;-40
2022/12/06 00:23:37;;;;;;;;;;;5.90;99.90;;;;;;5080616;28;20386;-40
2022/12/06 00:26:02;;;;;;;;;;;5.90;99.90;;;;;;5072109;28;19927;-39
2022/12/06 00:28:28;;;;;;;;;;;5.90;99.90;;;;;;5075359;28;19912;-40
2022/12/06 00:31:00;;;;;;;;;;;5.90;99.90;;;;;;5075307;28;19913;-42
2022/12/06 00:33:26;;;;;;;;;;;5.90;99.90;;;;;;5076206;28;19913;-42
2022/12/06 00:35:58;;;;;;;;;;;5.90;99.90;;;;;;5075894;28;19912;-44
2022/12/06 00:38:24;;;;;;;;;;;5.90;99.90;;;;;;5076670;28;19920;-42
2022/12/06 00:40:50;;;;;;;;;;;5.90;99.90;;;;;;5075958;28;19919;-39
2022/12/06 00:43:15;;;;;;;;;;;5.90;99.90;;;;;;5075506;28;19912;-41
2022/12/06 00:45:42;;;;;;;;;;;5.90;99.90;;;;;;5081863;28;19924;-39
2022/12/06 00:48:08;;;;;;;;;;;5.90;99.90;;;;;;5096477;28;19963;-40
2022/12/06 00:50:33;;;;;;;;;;;5.90;99.90;;;;;;5095295;28;20385;-39
2022/12/06 00:52:58;;;;;;;;;;;5.90;99.90;;;;;;5096223;28;19909;-41
2022/12/06 00:55:24;;;;;;;;;;;5.90;99.90;;;;;;5092066;28;19919;-39
2022/12/06 00:57:49;;;;;;;;;;;5.90;99.90;;;;;;5074882;28;19912;-41
2022/12/06 01:00:15;;;;;;;;;;;5.80;99.90;;;;;;5075805;28;19948;-39
2022/12/06 01:02:40;;;;;;;;;;;5.80;99.90;;;;;;5081234;28;19912;-39
2022/12/06 01:05:06;;;;;;;;;;;5.80;99.90;;;;;;5094779;28;19916;-40
2022/12/06 01:07:32;;;;;;;;;;;5.80;99.90;;;;;;5095909;28;20003;-40
2022/12/06 01:09:57;;;;;;;;;;;5.80;99.90;;;;;;5098997;28;19920;-43
2022/12/06 01:12:23;;;;;;;;;;;5.80;99.90;;;;;;5103526;28;19919;-40
2022/12/06 01:14:48;;;;;;;;;;;5.80;99.90;;;;;;5095703;28;19916;-41
2022/12/06 01:17:13;;;;;;;;;;;5.80;99.90;;;;;;5105602;28;19912;-40
2022/12/06 01:19:39;;;;;;;;;;;5.70;99.90;;;;;;5115337;28;20000;-40
2022/12/06 01:22:04;;;;;;;;;;;5.70;99.90;;;;;;5098759;28;20387;-39
2022/12/06 01:24:30;;;;;;;;;;;5.70;99.90;;;;;;5095535;28;19912;-39
2022/12/06 01:26:55;;;;;;;;;;;5.70;99.90;;;;;;5094609;28;20247;-42
2022/12/06 01:29:21;;;;;;;;;;;5.70;99.90;;;;;;5110418;28;19934;-40
2022/12/06 01:31:46;;;;;;;;;;;5.70;99.90;;;;;;5115147;28;19912;-39
2022/12/06 01:34:15;;;;;;;;;;;5.70;99.90;;;;;;5114732;28;19965;-40
2022/12/06 01:36:41;;;;;;;;;;;5.70;99.90;;;;;;5113954;28;19919;-40
2022/12/06 01:39:09;;;;;;;;;;;5.70;99.90;;;;;;5103670;28;19919;-40
2022/12/06 01:41:35;;;;;;;;;;;5.70;99.90;;;;;;5094776;28;19961;-40
2022/12/06 01:44:01;;;;;;;;;;;5.70;99.90;;;;;;5095245;28;19908;-40
2022/12/06 01:46:35;;;;;;;;;;;5.70;99.90;;;;;;5094403;28;19916;-41
2022/12/06 01:49:20;;;;;;;;;;;5.70;99.90;;;;;;5095290;28;19919;-40
2022/12/06 01:51:55;;;;;;;;;;;5.70;99.90;;;;;;5090746;28;20293;-39
2022/12/06 01:54:21;;;;;;;;;;;5.70;99.90;;;;;;5114779;28;20285;-40
2022/12/06 01:56:47;;;;;;;;;;;5.70;99.90;;;;;;5101563;28;19965;-39
2022/12/06 01:59:13;;;;;;;;;;;5.70;99.90;;;;;;5094918;28;19916;-39
2022/12/06 02:01:39;;;;;;;;;;;5.70;99.90;;;;;;5094122;28;19912;-39
2022/12/06 02:04:05;;;;;;;;;;;5.70;99.90;;;;;;5095870;28;19912;-40
2022/12/06 02:06:31;;;;;;;;;;;5.70;99.90;;;;;;5095852;28;19969;-39
2022/12/06 02:08:57;;;;;;;;;;;5.70;99.90;;;;;;5094957;28;19919;-41
2022/12/06 02:11:23;;;;;;;;;;;5.70;99.90;;;;;;5107018;28;20189;-40
2022/12/06 02:13:49;;;;;;;;;;;5.70;99.90;;;;;;5106665;28;20202;-40
2022/12/06 02:16:14;;;;;;;;;;;5.70;99.90;;;;;;5101238;28;20006;-41
2022/12/06 02:18:39;;;;;;;;;;;5.70;99.90;;;;;;5114505;28;20357;-41
2022/12/06 02:21:10;;;;;;;;;;;5.70;99.90;;;;;;5114812;28;19994;-39
2022/12/06 02:23:42;;;;;;;;;;;5.70;99.90;;;;;;5114254;28;20002;-40
2022/12/06 02:26:16;;;;;;;;;;;5.70;99.90;;;;;;5105212;28;19930;-39
2022/12/06 02:28:56;;;;;;;;;;;5.60;99.90;;;;;;5093613;28;19912;-39
2022/12/06 02:31:27;;;;;;;;;;;5.60;99.90;;;;;;5106763;28;19916;-41
2022/12/06 02:33:57;;;;;;;;;;;5.60;99.90;;;;;;5114369;28;19915;-41
2022/12/06 02:36:32;;;;;;;;;;;5.60;99.90;;;;;;5112139;28;20435;-40
2022/12/06 02:39:07;;;;;;;;;;;5.60;99.90;;;;;;5105051;28;20298;-40
2022/12/06 02:41:35;;;;;;;;;;;5.60;99.90;;;;;;5094052;28;20371;-40
2022/12/06 02:44:07;;;;;;;;;;;5.60;99.90;;;;;;5109450;28;19965;-39
2022/12/06 02:46:36;;;;;;;;;;;5.60;99.90;;;;;;5104719;28;20349;-40
2022/12/06 02:49:02;;;;;;;;;;;5.60;99.90;;;;;;5094069;28;19922;-39
2022/12/06 02:51:29;;;;;;;;;;;5.60;99.90;;;;;;5092571;28;19912;-40
2022/12/06 02:53:56;;;;;;;;;;;5.60;99.90;;;;;;5109439;28;19911;-40
2022/12/06 02:56:21;;;;;;;;;;;5.60;99.90;;;;;;5094061;28;20446;-42
2022/12/06 02:58:47;;;;;;;;;;;5.60;99.90;;;;;;5093062;28;19991;-41
2022/12/06 03:01:15;;;;;;;;;;;5.60;99.90;;;;;;5093726;28;19919;-40
2022/12/06 03:03:43;;;;;;;;;;;5.60;99.90;;;;;;5107906;28;19918;-40
2022/12/06 03:06:12;;;;;;;;;;;5.50;99.90;;;;;;5110399;28;20007;-40
2022/12/06 03:08:44;;;;;;;;;;;5.60;99.90;;;;;;5114103;28;19961;-39
2022/12/06 03:11:09;;;;;;;;;;;5.60;99.90;;;;;;5103952;28;19920;-43
2022/12/06 03:13:45;;;;;;;;;;;5.60;99.90;;;;;;5100782;28;19918;-39
2022/12/06 03:16:16;;;;;;;;;;;5.60;99.90;;;;;;5094754;28;20346;-40
2022/12/06 03:18:44;;;;;;;;;;;5.60;99.90;;;;;;5112181;28;19908;-42
2022/12/06 03:21:11;;;;;;;;;;;5.60;99.90;;;;;;5103951;28;19912;-41
2022/12/06 03:23:39;;;;;;;;;;;5.50;99.90;;;;;;5093467;28;20275;-41
2022/12/06 03:26:06;;;;;;;;;;;5.50;99.90;;;;;;5092456;28;20386;-41
2022/12/06 03:28:33;;;;;;;;;;;5.50;99.90;;;;;;5093118;28;19916;-39
2022/12/06 03:31:01;;;;;;;;;;;5.50;99.90;;;;;;5093347;28;19912;-39
2022/12/06 03:33:28;;;;;;;;;;;5.50;99.90;;;;;;5092419;28;20393;-39
2022/12/06 03:35:54;;;;;;;;;;;5.50;99.90;;;;;;5093380;28;19966;-40
2022/12/06 03:38:42;;;;;;;;;;;5.50;99.90;;;;;;5094211;28;19957;-39
2022/12/06 03:41:08;;;;;;;;;;;5.50;99.90;;;;;;5081010;28;20271;-41
2022/12/06 03:43:34;;;;;;;;;;;5.50;99.90;;;;;;5095528;28;19912;-40
2022/12/06 03:46:13;;;;;;;;;;;5.40;99.90;;;;;;5112332;28;20328;-39
2022/12/06 03:48:43;;;;;;;;;;;5.40;99.90;;;;;;5112812;28;19964;-41
2022/12/06 03:51:10;;;;;;;;;;;5.40;99.90;;;;;;5113018;28;19912;-40
2022/12/06 03:53:44;;;;;;;;;;;5.40;99.90;;;;;;5112553;28;19907;-39
2022/12/06 03:56:10;;;;;;;;;;;5.40;99.90;;;;;;5113166;28;19912;-40
2022/12/06 03:58:35;;;;;;;;;;;5.40;99.90;;;;;;5113217;28;19976;-40
2022/12/06 04:01:03;;;;;;;;;;;5.40;99.90;;;;;;5112228;28;19912;-40
2022/12/06 04:03:29;;;;;;;;;;;5.40;99.90;;;;;;5110839;28;19965;-39
2022/12/06 04:05:54;;;;;;;;;;;5.40;99.90;;;;;;5110036;28;19924;-40
2022/12/06 04:08:20;;;;;;;;;;;5.40;99.90;;;;;;5108245;28;19946;-41
2022/12/06 04:10:46;;;;;;;;;;;5.40;99.90;;;;;;5098367;28;19920;-40
2022/12/06 04:13:11;;;;;;;;;;;5.40;99.90;;;;;;5102855;28;19913;-41
2022/12/06 04:15:37;;;;;;;;;;;5.40;99.90;;;;;;5100984;28;19954;-41
2022/12/06 04:18:15;;;;;;;;;;;5.40;99.90;;;;;;5112712;28;19977;-39
2022/12/06 04:23:24;;;;;;;;;;;5.40;99.90;;;;;;5095210;28;19927;-39
2022/12/06 04:25:49;;;;;;;;;;;5.40;99.90;;;;;;5107158;28;19923;-41
2022/12/06 04:39:12;;;;;;;;;;;5.30;99.90;;;;;;5092545;28;20286;-41
2022/12/06 04:44:22;;;;;;;;;;;5.30;99.90;;;;;;5111976;28;19919;-39
2022/12/06 04:46:47;;;;;;;;;;;5.30;99.90;;;;;;5105620;28;19916;-39
2022/12/06 04:49:12;;;;;;;;;;;5.20;99.90;;;;;;5092628;28;19916;-39
2022/12/06 04:51:38;;;;;;;;;;;5.20;99.90;;;;;;5112404;28;20475;-39
2022/12/06 04:54:04;;;;;;;;;;;5.10;99.90;;;;;;5112782;28;19908;-39
2022/12/06 04:56:29;;;;;;;;;;;5.10;99.90;;;;;;5111539;28;20370;-41
2022/12/06 04:58:55;;;;;;;;;;;5.10;99.90;;;;;;5112697;28;19908;-39
2022/12/06 05:01:21;;;;;;;;;;;5.00;99.90;;;;;;5112385;28;20397;-40
2022/12/06 05:03:46;;;;;;;;;;;5.00;99.90;;;;;;5109374;28;20438;-40
2022/12/06 05:06:12;;;;;;;;;;;5.00;99.90;;;;;;5110510;28;20383;-40
2022/12/06 05:08:37;;;;;;;;;;;4.90;99.90;;;;;;5112272;28;19969;-39
2022/12/06 05:11:03;;;;;;;;;;;4.90;99.90;;;;;;5111274;28;19939;-40
2022/12/06 05:13:28;;;;;;;;;;;4.90;99.90;;;;;;5112683;28;19956;-40
2022/12/06 05:15:55;;;;;;;;;;;4.90;99.90;;;;;;5111081;28;19918;-39
2022/12/06 05:18:21;;;;;;;;;;;4.80;99.90;;;;;;5098064;28;19919;-39
2022/12/06 05:20:46;;;;;;;;;;;4.80;99.90;;;;;;5115709;28;19916;-41
2022/12/06 05:23:12;;;;;;;;;;;4.80;99.90;;;;;;5115521;28;19934;-39
2022/12/06 05:25:37;;;;;;;;;;;4.90;99.90;;;;;;5109775;28;19973;-40
2022/12/06 05:28:03;;;;;;;;;;;4.90;99.90;;;;;;5095695;28;19912;-40
2022/12/06 05:30:29;;;;;;;;;;;4.90;99.90;;;;;;5095369;28;19965;-40
2022/12/06 05:32:54;;;;;;;;;;;4.90;99.90;;;;;;5114943;28;19984;-40
2022/12/06 05:35:20;;;;;;;;;;;4.90;99.90;;;;;;5115499;28;19912;-39
2022/12/06 05:37:45;;;;;;;;;;;4.90;99.90;;;;;;5113897;28;19943;-41
2022/12/06 05:40:11;;;;;;;;;;;4.90;99.90;;;;;;5114709;28;20317;-40
2022/12/06 05:42:38;;;;;;;;;;;4.90;99.90;;;;;;5115370;28;19912;-40
2022/12/06 05:45:03;;;;;;;;;;;4.90;99.90;;;;;;5115329;28;19923;-39
2022/12/06 05:47:29;;;;;;;;;;;4.90;99.90;;;;;;5114503;28;19912;-39
2022/12/06 05:49:54;;;;;;;;;;;4.90;99.90;;;;;;5101930;28;19923;-41
2022/12/06 05:52:20;;;;;;;;;;;4.90;99.90;;;;;;5095099;28;20287;-39
2022/12/06 05:54:45;;;;;;;;;;;4.90;99.90;;;;;;5094329;28;19912;-41
2022/12/06 05:57:11;;;;;;;;;;;4.90;99.90;;;;;;5094821;28;19981;-41
2022/12/06 05:59:36;;;;;;;;;;;4.80;99.90;;;;;;5094191;28;19916;-41
2022/12/06 06:02:02;;;;;;;;;;;4.80;99.90;;;;;;5095574;28;19934;-41
2022/12/06 06:04:27;;;;;;;;;;;4.80;99.90;;;;;;5096114;28;19919;-38
2022/12/06 06:06:53;;;;;;;;;;;4.80;99.90;;;;;;5095075;28;20061;-40
2022/12/06 06:09:18;;;;;;;;;;;4.80;99.90;;;;;;5104341;28;19987;-41
2022/12/06 06:11:44;;;;;;;;;;;4.80;99.90;;;;;;5094365;28;19920;-40
2022/12/06 06:14:09;;;;;;;;;;;4.70;99.90;;;;;;5110092;28;19912;-39
2022/12/06 06:16:34;;;;;;;;;;;4.70;99.90;;;;;;5101114;28;19920;-41
2022/12/06 06:19:00;;;;;;;;;;;4.70;99.90;;;;;;5114558;28;19915;-40
2022/12/06 06:21:26;;;;;;;;;;;4.70;99.90;;;;;;5103615;28;19926;-39
2022/12/06 06:23:51;;;;;;;;;;;4.70;99.90;;;;;;5094426;28;19912;-39
2022/12/06 06:26:17;;;;;;;;;;;4.70;99.90;;;;;;5094000;28;19927;-40
2022/12/06 06:28:42;;;;;;;;;;;4.70;99.90;;;;;;5093797;28;19999;-40
2022/12/06 06:31:08;;;;;;;;;;;4.70;99.90;;;;;;5094395;28;19912;-40
2022/12/06 06:33:34;;;;;;;;;;;4.60;99.90;;;;;;5094257;28;20345;-42
2022/12/06 06:35:59;;;;;;;;;;;4.60;99.90;;;;;;5093372;28;20248;-39
2022/12/06 06:38:25;;;;;;;;;;;4.60;99.90;;;;;;5094254;28;19965;-40
2022/12/06 06:40:50;;;;;;;;;;;4.50;99.90;;;;;;5095129;28;19915;-39
2022/12/06 06:43:22;;;;;;;;;;;4.50;99.90;;;;;;5093195;28;19912;-39
2022/12/06 06:45:55;;;;;;;;;;;4.50;99.90;;;;;;5093935;28;20023;-40
2022/12/06 06:48:20;;;;;;;;;;;4.50;99.90;;;;;;5113190;28;19990;-39
2022/12/06 06:50:46;;;;;;;;;;;4.50;99.90;;;;;;5093454;28;20472;-40
2022/12/06 06:53:12;;;;;;;;;;;4.50;99.90;;;;;;5094948;28;19912;-41
2022/12/06 06:55:37;;;;;;;;;;;4.50;99.90;;;;;;5093776;28;19912;-42
2022/12/06 06:58:04;;;;;;;;;;;4.50;99.90;;;;;;5093055;28;19912;-41
2022/12/06 07:00:29;;;;;;;;;;;4.50;99.90;;;;;;5093746;28;19912;-42
2022/12/06 07:02:55;;;;;;;;;;;4.50;99.90;;;;;;5094930;28;19995;-41
2022/12/06 07:05:20;;;;;;;;;;;4.50;99.90;;;;;;5093738;28;19938;-40
2022/12/06 07:07:46;;;;;;;;;;;4.40;99.90;;;;;;5095031;28;19913;-39
2022/12/06 07:10:12;;;;;;;;;;;4.40;99.90;;;;;;5104374;28;19927;-39
2022/12/06 07:12:37;;;;;;;;;;;4.30;99.90;;;;;;5076693;28;19912;-39
2022/12/06 07:15:03;;;;;;;;;;;4.40;99.90;;;;;;5105209;28;19908;-40
2022/12/06 07:17:29;;;;;;;;;;;4.30;99.90;;;;;;5113037;28;19976;-39
2022/12/06 07:19:55;;;;;;;;;;;4.20;99.90;;;;;;5095286;28;19934;-39
2022/12/06 07:22:20;;;;;;;;;;;4.20;99.90;;;;;;5093467;28;19915;-40
2022/12/06 07:24:46;;;;;;;;;;;4.10;99.90;;;;;;5092579;28;19912;-39
2022/12/06 07:27:11;;;;;;;;;;;4.10;99.90;;;;;;5093093;28;20266;-40
2022/12/06 07:29:37;;;;;;;;;;;4.00;99.90;;;;;;5092225;28;19914;-41
2022/12/06 07:32:03;;;;;;;;;;;4.00;99.90;;;;;;5092169;28;19920;-39
2022/12/06 07:34:28;;;;;;;;;;;3.90;99.90;;;;;;5093235;28;19997;-39
2022/12/06 07:36:54;;;;;;;;;;;3.90;99.90;;;;;;5090550;28;20001;-39
2022/12/06 07:39:19;;;;;;;;;;;3.90;99.90;;;;;;5077655;28;19919;-41
2022/12/06 07:47:13;;;;;;;;;;;3.80;99.90;;;;;;5087202;28;19966;-40
2022/12/06 07:49:38;;;;;;;;;;;3.70;99.90;;;;;;5092301;28;19920;-40
2022/12/06 07:52:04;;;;;;;;;;;3.70;99.90;;;;;;5074331;28;19913;-39
2022/12/06 07:54:29;;;;;;;;;;;3.70;99.90;;;;;;5073654;28;20389;-42
2022/12/06 07:56:55;;;;;;;;;;;3.70;99.90;;;;;;5076548;28;19914;-40
2022/12/06 07:59:21;;;;;;;;;;;3.60;99.90;;;;;;5075472;28;20387;-41
2022/12/06 08:01:46;;;;;;;;;;;3.60;99.90;;;;;;5078679;28;19919;-41
2022/12/06 08:04:12;;;;;;;;;;;3.60;99.90;;;;;;5086030;28;20009;-39
2022/12/06 08:06:38;;;;;;;;;;;3.60;99.90;;;;;;5072641;28;20318;-41
2022/12/06 08:09:04;;;;;;;;;;;3.60;99.90;;;;;;5076745;28;19919;-39
2022/12/06 08:11:29;;;;;;;;;;;3.60;99.90;;;;;;5114841;28;20283;-42
2022/12/06 08:13:55;;;;;;;;;;;3.60;99.90;;;;;;5132831;28;20002;-40
2022/12/06 08:16:20;;;;;;;;;;;3.60;99.90;;;;;;5114416;28;19908;-40
2022/12/06 08:18:46;;;;;;;;;;;3.60;99.90;;;;;;5112772;28;20355;-39
2022/12/06 08:21:12;;;;;;;;;;;3.60;99.90;;;;;;5092278;28;19912;-39
2022/12/06 08:23:37;;;;;;;;;;;3.60;99.90;;;;;;5092492;28;20318;-39
2022/12/06 08:26:04;;;;;;;;;;;3.60;99.90;;;;;;5092614;28;20471;-40
2022/12/06 08:28:30;;;;;;;;;;;3.60;99.90;;;;;;5091786;28;19909;-39
2022/12/06 08:30:56;;;;;;;;;;;3.60;99.90;;;;;;5092556;28;20022;-40
2022/12/06 08:33:22;;;;;;;;;;;3.60;99.90;;;;;;5092604;28;20337;-40
2022/12/06 08:35:48;;;;;;;;;;;3.70;99.90;;;;;;5091747;28;20322;-40
2022/12/06 08:38:14;;;;;;;;;;;3.70;99.90;;;;;;5092543;28;20549;-41
2022/12/06 08:40:39;;;;;;;;;;;3.70;99.90;;;;;;5092100;28;20016;-39
2022/12/06 08:43:05;;;;;;;;;;;3.70;99.90;;;;;;5102505;28;19918;-39
2022/12/06 08:45:30;;;;;;;;;;;3.70;99.90;;;;;;5102621;28;19927;-40
2022/12/06 08:47:56;;;;;;;;;;;3.70;99.90;;;;;;5101989;28;19965;-39
2022/12/06 08:50:21;;;;;;;;;;;3.70;99.90;;;;;;5098583;28;19908;-41
2022/12/06 08:52:46;;;;;;;;;;;3.80;99.90;;;;;;5096308;28;20273;-40
2022/12/06 08:55:12;;;;;;;;;;;3.80;99.90;;;;;;5096350;28;19954;-40
2022/12/06 08:57:37;;;;;;;;;;;3.80;99.90;;;;;;5110066;28;19916;-41
2022/12/06 09:00:06;;;;;;;;;;;3.90;99.90;;;;;;5130617;27;19912;-40
2022/12/06 09:02:32;;;;;;;;;;;3.90;99.90;;;;;;5136231;27;19911;-41
2022/12/06 09:04:57;;;;;;;;;;;4.00;99.90;;;;;;5137084;27;19915;-40
2022/12/06 09:07:25;;;;;;;;;;;4.00;99.90;;;;;;5137000;27;19922;-39
2022/12/06 09:09:53;;;;;;;;;;;4.10;99.90;;;;;;5135942;27;19923;-40
2022/12/06 09:12:19;;;;;;;;;;;4.10;99.90;;;;;;5117923;27;20324;-39
2022/12/06 09:14:44;;;;;;;;;;;4.20;99.90;;;;;;5116263;28;19908;-39
2022/12/06 09:17:10;;;;;;;;;;;4.30;99.90;;;;;;5115530;28;19915;-40
2022/12/06 09:19:35;;;;;;;;;;;4.30;99.90;;;;;;5116195;28;19907;-39
2022/12/06 09:22:01;;;;;;;;;;;4.40;99.90;;;;;;5116236;28;20278;-39
2022/12/06 09:24:26;;;;;;;;;;;4.50;99.90;;;;;;5115213;28;20042;-41
2022/12/06 09:26:52;;;;;;;;;;;4.60;99.90;;;;;;5115400;28;19915;-40
2022/12/06 09:29:17;;;;;;;;;;;4.80;99.90;;;;;;5095271;28;19908;-39
2022/12/06 09:31:43;;;;;;;;;;;4.90;99.90;;;;;;5094465;28;19939;-40
2022/12/06 09:34:09;;;;;;;;;;;5.10;99.90;;;;;;5112292;28;19908;-39
2022/12/06 09:36:37;;;;;;;;;;;5.10;99.90;;;;;;5115233;28;19909;-40
2022/12/06 09:39:04;;;;;;;;;;;5.20;99.90;;;;;;5114432;28;20282;-41
2022/12/06 09:41:47;;;;;;;;;;;5.20;99.90;;;;;;5112043;28;19908;-40
2022/12/06 09:44:40;;;;;;;;;;;5.30;99.90;;;;;;5111728;28;19931;-39
2022/12/06 09:47:06;;;;;;;;;;;5.40;99.90;;;;;;5110963;28;19928;-42
2022/12/06 09:49:37;;;;;;;;;;;5.40;99.90;;;;;;5107697;28;20082;-40
2022/12/06 09:52:06;;;;;;;;;;;5.50;99.90;;;;;;5107299;27;19915;-41
2022/12/06 09:54:50;;;;;;;;;;;5.50;99.90;;;;;;5122465;27;19970;-41
2022/12/06 09:57:18;;;;;;;;;;;5.50;99.90;;;;;;5135866;27;19922;-42
2022/12/06 10:00:03;;;;;;;;;;;5.50;99.90;;;;;;5134398;27;19911;-39
2022/12/06 10:02:34;;;;;;;;;;;5.50;99.90;;;;;;5111469;27;19943;-40
2022/12/06 10:05:11;;;;;;;;;;;5.50;99.90;;;;;;5105632;27;19920;-40
2022/12/06 10:07:56;;;;;;;;;;;5.60;99.90;;;;;;5108073;28;19947;-39
2022/12/06 10:10:40;;;;;;;;;;;5.60;99.90;;;;;;5116549;27;19992;-40
2022/12/06 10:13:15;;;;;;;;;;;5.50;99.90;;;;;;5135879;27;19907;-40
2022/12/06 10:15:56;;;;;;;;;;;5.50;99.90;;;;;;5136584;27;19942;-40
2022/12/06 10:18:24;;;;;;;;;;;5.40;99.90;;;;;;5136252;27;19908;-42
2022/12/06 10:21:00;;;;;;;;;;;5.50;99.90;;;;;;5135473;27;19908;-41
2022/12/06 10:23:29;;;;;;;;;;;5.60;99.90;;;;;;5117934;27;19915;-39
2022/12/06 10:26:03;;;;;;;;;;;5.70;99.90;;;;;;5115594;28;19981;-40
2022/12/06 10:28:37;;;;;;;;;;;5.70;99.90;;;;;;5115061;28;19914;-39
2022/12/06 10:31:09;;;;;;;;;;;5.90;99.90;;;;;;5115467;28;20002;-40
2022/12/06 10:33:35;;;;;;;;;;;5.90;99.90;;;;;;5115329;28;19918;-40
2022/12/06 10:36:02;;;;;;;;;;;6.00;99.90;;;;;;5114918;28;19916;-41
2022/12/06 10:38:31;;;;;;;;;;;6.10;99.90;;;;;;5115479;28;19930;-39
2022/12/06 10:41:20;;;;;;;;;;;6.20;99.90;;;;;;5114846;28;19912;-41
2022/12/06 10:43:48;;;;;;;;;;;6.20;99.90;;;;;;5114975;28;19908;-40
2022/12/06 10:49:20;;;;;;;;;;;6.40;99.90;;;;;;5115109;28;19993;-39
2022/12/06 10:51:54;;;;;;;;;;;6.30;99.90;;;;;;5115052;28;20284;-39
2022/12/06 10:54:33;;;;;;;;;;;6.30;99.90;;;;;;5113075;28;19939;-42
2022/12/06 10:57:01;;;;;;;;;;;6.30;99.90;;;;;;5103598;28;19912;-40
2022/12/06 10:59:35;;;;;;;;;;;6.30;99.90;;;;;;5128888;27;19930;-39
2022/12/06 11:02:03;;;;;;;;;;;6.40;99.90;;;;;;5135618;27;19911;-39
2022/12/06 11:04:32;;;;;;;;;;;6.40;99.90;;;;;;5135175;27;19914;-41
2022/12/06 11:07:01;;;;;;;;;;;6.50;99.90;;;;;;5135401;27;19907;-39
2022/12/06 11:09:32;;;;;;;;;;;6.60;99.90;;;;;;5134385;27;20010;-39
2022/12/06 11:11:58;;;;;;;;;;;6.60;99.90;;;;;;5134213;27;19916;-40
2022/12/06 11:14:40;;;;;;;;;;;6.80;99.90;;;;;;5135061;27;19998;-41
2022/12/06 11:17:23;;;;;;;;;;;6.80;99.90;;;;;;5116254;27;20351;-41
2022/12/06 11:20:02;;;;;;;;;;;6.90;99.90;;;;;;5113755;28;20304;-40
2022/12/06 11:22:52;;;;;;;;;;;6.90;99.90;;;;;;5114408;28;19927;-40
2022/12/06 11:25:17;;;;;;;;;;;6.90;99.90;;;;;;5113844;28;20007;-41
2022/12/06 11:27:59;;;;;;;;;;;6.80;99.90;;;;;;5114527;28;19955;-40
2022/12/06 11:30:26;;;;;;;;;;;6.80;99.90;;;;;;5103574;28;19923;-40
2022/12/06 11:32:51;;;;;;;;;;;6.90;99.90;;;;;;5098813;28;19912;-41
2022/12/06 11:35:18;;;;;;;;;;;6.90;99.90;;;;;;5105323;28;19914;-40
2022/12/06 11:37:44;;;;;;;;;;;6.90;99.90;;;;;;5105065;28;20007;-40
2022/12/06 11:40:23;;;;;;;;;;;6.90;99.90;;;;;;5095062;28;20046;-42
2022/12/06 11:42:49;;;;;;;;;;;6.90;99.90;;;;;;5106904;28;19920;-41
2022/12/06 11:45:18;;;;;;;;;;;6.90;99.90;;;;;;5110644;28;19926;-43
2022/12/06 11:47:44;;;;;;;;;;;6.80;99.90;;;;;;5112100;28;20291;-42
2022/12/06 11:50:15;;;;;;;;;;;6.80;99.90;;;;;;5112403;28;19912;-40
2022/12/06 11:52:43;;;;;;;;;;;6.90;99.90;;;;;;5109439;28;19919;-40
2022/12/06 11:55:16;;;;;;;;;;;6.90;99.90;;;;;;5113784;27;19912;-40
2022/12/06 11:57:53;;;;;;;;;;;7.00;99.90;;;;;;5095444;28;20335;-39
2022/12/06 12:00:20;;;;;;;;;;;6.90;99.90;;;;;;5111041;28;19911;-42
2022/12/06 12:02:46;;;;;;;;;;;7.00;99.90;;;;;;5113609;28;20010;-41
2022/12/06 12:05:15;;;;;;;;;;;6.90;99.90;;;;;;5113437;28;20006;-42
2022/12/06 12:07:42;;;;;;;;;;;6.90;99.90;;;;;;5113912;28;19947;-40
2022/12/06 12:10:20;;;;;;;;;;;6.90;99.90;;;;;;5113691;28;19919;-40
2022/12/06 12:15:31;;;;;;;;;;;6.90;99.90;;;;;;5114151;28;19915;-40
2022/12/06 12:17:57;;;;;;;;;;;6.90;99.90;;;;;;5113665;28;19908;-40
2022/12/06 12:20:27;;;;;;;;;;;6.80;99.90;;;;;;5113013;28;19915;-40
2022/12/06 12:22:57;;;;;;;;;;;6.80;99.90;;;;;;5111654;28;19973;-41
2022/12/06 12:25:25;;;;;;;;;;;6.80;99.90;;;;;;5097627;28;20481;-39
2022/12/06 12:27:51;;;;;;;;;;;6.70;99.90;;;;;;5096837;28;19951;-40
2022/12/06 12:30:19;;;;;;;;;;;6.70;99.90;;;;;;5103843;28;19950;-42
2022/12/06 12:32:45;;;;;;;;;;;6.70;99.90;;;;;;5104059;28;20337;-40
2022/12/06 12:35:20;;;;;;;;;;;6.80;99.90;;;;;;5106298;27;19931;-42
2022/12/06 12:37:50;;;;;;;;;;;6.90;99.90;;;;;;5104689;28;19912;-40
2022/12/06 12:40:23;;;;;;;;;;;7.00;99.90;;;;;;5102545;27;19913;-39
2022/12/06 12:42:55;;;;;;;;;;;7.10;99.90;;;;;;5113694;27;19907;-41
2022/12/06 12:45:21;;;;;;;;;;;7.10;99.90;;;;;;5116799;28;19920;-42
2022/12/06 12:47:56;;;;;;;;;;;7.10;99.90;;;;;;5115567;28;19915;-40
2022/12/06 12:50:22;;;;;;;;;;;7.10;99.90;;;;;;5116913;28;19912;-39
2022/12/06 12:52:48;;;;;;;;;;;7.10;99.90;;;;;;5116534;28;19914;-42
2022/12/06 12:55:16;;;;;;;;;;;7.20;99.90;;;;;;5115858;28;20387;-39
2022/12/06 12:57:43;;;;;;;;;;;7.30;99.90;;;;;;5110826;28;19908;-40
2022/12/06 13:00:29;;;;;;;;;;;7.40;99.90;;;;;;5097099;28;19919;-42
2022/12/06 13:02:57;;;;;;;;;;;7.50;99.90;;;;;;5095700;28;19908;-43
2022/12/06 13:05:28;;;;;;;;;;;7.60;99.90;;;;;;5096083;28;20253;-40
2022/12/06 13:07:56;;;;;;;;;;;7.60;99.90;;;;;;5096075;28;19995;-40
2022/12/06 13:10:32;;;;;;;;;;;7.50;99.90;;;;;;5095226;28;19920;-41
2022/12/06 13:13:03;;;;;;;;;;;7.30;99.90;;;;;;5095941;28;19912;-40
2022/12/06 13:15:33;;;;;;;;;;;7.30;99.90;;;;;;5095960;28;19915;-42
2022/12/06 13:18:02;;;;;;;;;;;7.10;99.90;;;;;;5095975;28;19918;-42
2022/12/06 13:20:31;;;;;;;;;;;7.10;99.90;;;;;;5095878;28;19962;-40
2022/12/06 13:23:07;;;;;;;;;;;7.00;99.90;;;;;;5094941;28;19935;-41
2022/12/06 13:25:32;;;;;;;;;;;7.00;99.90;;;;;;5095632;28;20027;-40
2022/12/06 13:27:59;;;;;;;;;;;7.00;99.90;;;;;;5104087;28;19994;-42
2022/12/06 13:30:27;;;;;;;;;;;7.00;99.90;;;;;;5115311;28;20362;-42
2022/12/06 13:32:55;;;;;;;;;;;6.90;99.90;;;;;;5115882;28;19915;-40
2022/12/06 13:35:27;;;;;;;;;;;6.90;99.90;;;;;;5114988;28;19931;-40
2022/12/06 13:37:54;;;;;;;;;;;6.90;99.90;;;;;;5115016;28;19908;-40
2022/12/06 13:40:32;;;;;;;;;;;6.90;99.90;;;;;;5115821;28;19908;-41
2022/12/06 13:42:58;;;;;;;;;;;6.90;99.90;;;;;;5115646;28;20266;-41
2022/12/06 13:45:44;;;;;;;;;;;6.90;99.90;;;;;;5115001;28;19923;-42
2022/12/06 13:48:24;;;;;;;;;;;6.90;99.90;;;;;;5115799;28;19907;-41
2022/12/06 13:50:50;;;;;;;;;;;6.90;99.90;;;;;;5114891;28;19911;-40
2022/12/06 13:53:15;;;;;;;;;;;6.90;99.90;;;;;;5115635;28;19915;-41
2022/12/06 13:55:41;;;;;;;;;;;7.00;99.90;;;;;;5115439;28;19908;-42
2022/12/06 13:58:06;;;;;;;;;;;7.00;99.90;;;;;;5101835;28;20050;-41
2022/12/06 14:00:33;;;;;;;;;;;7.00;99.90;;;;;;5095028;28;19912;-41
2022/12/06 14:03:19;;;;;;;;;;;7.00;99.90;;;;;;5094995;28;19974;-41
2022/12/06 14:06:03;;;;;;;;;;;7.00;99.90;;;;;;5084860;28;20090;-40
2022/12/06 14:08:31;;;;;;;;;;;7.00;99.90;;;;;;5115328;28;20412;-40
2022/12/06 14:11:06;;;;;;;;;;;7.00;99.90;;;;;;5114885;28;19926;-41
2022/12/06 14:13:31;;;;;;;;;;;6.90;99.90;;;;;;5114517;28;20002;-40
2022/12/06 14:15:57;;;;;;;;;;;6.90;99.90;;;;;;5115090;28;21019;-40
2022/12/06 14:18:25;;;;;;;;;;;6.90;99.90;;;;;;5115116;28;19930;-41
2022/12/06 14:20:51;;;;;;;;;;;6.80;99.90;;;;;;5114455;28;19912;-40
2022/12/06 14:23:21;;;;;;;;;;;6.80;99.90;;;;;;5114991;28;19965;-42
2022/12/06 14:25:46;;;;;;;;;;;6.80;99.90;;;;;;5115110;28;19920;-41
2022/12/06 14:28:12;;;;;;;;;;;6.80;99.90;;;;;;5100866;28;20269;-41
2022/12/06 14:30:38;;;;;;;;;;;6.80;99.90;;;;;;5094500;28;19912;-40
2022/12/06 14:33:15;;;;;;;;;;;6.80;99.90;;;;;;5093484;28;19915;-41
2022/12/06 14:35:40;;;;;;;;;;;6.70;99.90;;;;;;5094431;28;19917;-41
2022/12/06 14:38:18;;;;;;;;;;;6.70;99.90;;;;;;5094232;28;19913;-41
2022/12/06 14:43:28;;;;;;;;;;;6.70;99.90;;;;;;5094551;28;19962;-40
2022/12/06 14:45:56;;;;;;;;;;;6.70;99.90;;;;;;5093960;28;19920;-40
2022/12/06 14:48:21;;;;;;;;;;;6.70;99.90;;;;;;5093312;28;19915;-42
2022/12/06 14:50:51;;;;;;;;;;;6.60;99.90;;;;;;5094046;28;20282;-40
2022/12/06 14:53:36;;;;;;;;;;;6.60;99.90;;;;;;5094097;28;19916;-41
2022/12/06 14:56:01;;;;;;;;;;;6.60;99.90;;;;;;5093091;28;20436;-41
2022/12/06 14:58:29;;;;;;;;;;;6.60;99.90;;;;;;5111439;28;19912;-41
2022/12/06 15:00:57;;;;;;;;;;;6.70;99.90;;;;;;5114181;28;19960;-41
2022/12/06 15:03:29;;;;;;;;;;;6.60;99.90;;;;;;5113668;28;19908;-39
2022/12/06 15:06:09;;;;;;;;;;;6.60;99.90;;;;;;5113985;28;20389;-40
2022/12/06 15:08:35;;;;;;;;;;;6.60;99.90;;;;;;5113380;28;19908;-41